createdAt,value
2018-02-10T00:02:16.231Z,38.22
2018-02-10T00:04:44.597Z,44.72
2018-02-10T00:07:12.999Z,41.70
2018-02-10T00:09:41.403Z,43.10
2018-02-10T00:12:09.830Z,48.65
2018-02-10T00:14:38.247Z,43.95
2018-02-10T00:17:06.739Z,38.97
2018-02-10T00:19:35.133Z,48.30
2018-02-10T00:22:03.536Z,44.33
2018-02-10T00:24:31.925Z,42.47
2018-02-10T00:27:00.313Z,46.15
2018-02-10T00:29:28.774Z,43.00
2018-02-10T00:31:57.191Z,42.28
2018-02-10T00:34:25.584Z,40.90
2018-02-10T00:36:54.000Z,36.33
2018-02-10T00:39:22.473Z,37.22
2018-02-10T00:41:50.965Z,39.83
2018-02-10T00:44:19.389Z,50.22
2018-02-10T00:46:47.840Z,48.58
2018-02-10T00:49:16.207Z,35.65
2018-02-10T00:51:44.681Z,40.80
2018-02-10T00:54:13.069Z,45.75
2018-02-10T00:56:41.486Z,41.92
2018-02-10T00:59:09.873Z,40.83
2018-02-10T01:01:38.362Z,46.22
2018-02-10T01:04:06.739Z,46.35
2018-02-10T01:06:35.163Z,51.92
2018-02-10T01:09:03.568Z,48.05
2018-02-10T01:11:31.980Z,54.42
2018-02-10T01:14:00.393Z,45.88
2018-02-10T01:16:28.860Z,45.42
2018-02-10T01:18:57.293Z,47.00
2018-02-10T01:21:25.701Z,55.28
2018-02-10T01:23:54.268Z,51.47
2018-02-10T01:26:22.663Z,60.67
2018-02-10T01:28:51.068Z,59.97
2018-02-10T01:31:19.470Z,49.40
2018-02-10T01:33:47.850Z,49.00
2018-02-10T01:36:16.377Z,56.97
2018-02-10T01:38:44.770Z,47.47
2018-02-10T01:41:13.157Z,61.83
2018-02-10T01:43:41.551Z,53.30
2018-02-10T01:46:09.942Z,48.67
2018-02-10T01:48:38.430Z,46.37
2018-02-10T01:51:06.829Z,50.45
2018-02-10T01:53:35.238Z,58.15
2018-02-10T01:56:03.728Z,52.72
2018-02-10T01:58:32.194Z,50.15
2018-02-10T02:01:00.606Z,49.70
2018-02-10T02:03:29.003Z,46.95
2018-02-10T02:05:57.422Z,50.08
2018-02-10T02:08:25.826Z,50.25
2018-02-10T02:10:54.312Z,53.92
2018-02-10T02:13:22.705Z,45.03
2018-02-10T02:15:51.113Z,60.38
2018-02-10T02:18:19.532Z,58.03
2018-02-10T02:20:48.103Z,56.45
2018-02-10T02:23:16.481Z,49.40
2018-02-10T02:25:44.873Z,47.33
2018-02-10T02:28:13.248Z,46.65
2018-02-10T02:30:41.615Z,44.53
2018-02-10T02:33:10.168Z,46.15
2018-02-10T02:35:38.563Z,50.55
2018-02-10T02:38:06.971Z,50.22
2018-02-10T02:40:35.365Z,55.17
2018-02-10T02:43:03.835Z,41.60
2018-02-10T02:45:32.250Z,44.70
2018-02-10T02:48:00.719Z,48.40
2018-02-10T02:50:29.187Z,37.97
2018-02-10T02:52:57.564Z,46.65
2018-02-10T02:55:26.158Z,37.75
2018-02-10T02:57:54.593Z,46.65
2018-02-10T03:00:22.960Z,42.45
2018-02-10T03:02:51.409Z,42.47
2018-02-10T03:05:19.806Z,45.83
2018-02-10T03:07:48.219Z,49.28
2018-02-10T03:10:16.751Z,51.33
2018-02-10T03:12:45.122Z,45.50
2018-02-10T03:15:13.529Z,48.28
2018-02-10T03:17:41.990Z,45.38
2018-02-10T03:20:10.351Z,44.00
2018-02-10T03:22:38.832Z,51.17
2018-02-10T03:25:07.238Z,44.63
2018-02-10T03:27:35.703Z,48.22
2018-02-10T03:30:04.075Z,47.85
2018-02-10T03:32:32.545Z,45.70
2018-02-10T03:35:00.913Z,51.60
2018-02-10T03:37:29.287Z,53.75
2018-02-10T03:39:58.030Z,51.80
2018-02-10T03:42:26.453Z,58.87
2018-02-10T03:44:54.848Z,55.92
2018-02-10T03:47:23.251Z,56.70
2018-02-10T03:49:51.605Z,59.75
2018-02-10T03:52:20.159Z,57.30
2018-02-10T03:54:48.665Z,55.12
2018-02-10T03:57:17.031Z,51.95
2018-02-10T03:59:45.443Z,65.05
2018-02-10T04:02:13.830Z,56.10
2018-02-10T04:04:42.206Z,53.87
2018-02-10T04:07:10.623Z,58.55
2018-02-10T04:09:39.023Z,55.92
2018-02-10T04:12:07.551Z,63.55
2018-02-10T04:14:35.926Z,59.13
2018-02-10T04:17:04.331Z,51.78
2018-02-10T04:19:32.733Z,55.58
2018-02-10T04:22:01.195Z,73.50
2018-02-10T04:24:29.559Z,60.12
2018-02-10T04:26:57.954Z,61.85
2018-02-10T04:29:26.360Z,58.80
2018-02-10T04:31:54.754Z,59.05
2018-02-10T04:34:23.200Z,63.35
2018-02-10T04:36:51.606Z,61.95
2018-02-10T04:39:20.092Z,64.00
2018-02-10T04:41:48.503Z,63.65
2018-02-10T04:44:16.900Z,59.85
2018-02-10T04:46:45.290Z,59.65
2018-02-10T04:49:13.662Z,60.30
2018-02-10T04:51:42.052Z,65.93
2018-02-10T04:54:10.436Z,61.72
2018-02-10T04:56:38.871Z,67.43
2018-02-10T04:59:07.287Z,59.50
2018-02-10T05:01:35.701Z,59.17
2018-02-10T05:04:04.104Z,67.25
2018-02-10T05:06:32.582Z,55.97
2018-02-10T05:09:01.343Z,54.72
2018-02-10T05:11:29.733Z,60.33
2018-02-10T05:13:58.096Z,50.72
2018-02-10T05:16:26.488Z,62.62
2018-02-10T05:18:54.922Z,62.28
2018-02-10T05:21:23.348Z,55.58
2018-02-10T05:23:51.717Z,54.13
2018-02-10T05:26:20.114Z,56.03
2018-02-10T05:28:48.551Z,57.33
2018-02-10T05:31:16.995Z,58.00
2018-02-10T05:33:45.464Z,51.42
2018-02-10T05:36:13.866Z,56.90
2018-02-10T05:38:42.272Z,60.80
2018-02-10T05:41:10.679Z,57.88
2018-02-10T05:43:39.044Z,63.20
2018-02-10T05:46:07.698Z,55.25
2018-02-10T05:48:36.077Z,54.00
2018-02-10T05:51:04.441Z,59.00
2018-02-10T05:53:32.822Z,58.67
2018-02-10T05:56:01.223Z,61.42
2018-02-10T05:58:29.629Z,56.47
2018-02-10T06:00:58.013Z,59.72
2018-02-10T06:03:27.037Z,53.10
2018-02-10T06:05:55.463Z,52.08
2018-02-10T06:08:23.875Z,49.30
2018-02-10T06:10:52.274Z,51.83
2018-02-10T06:13:20.751Z,60.10
2018-02-10T06:15:49.198Z,51.05
2018-02-10T06:18:17.606Z,52.78
2018-02-10T06:20:46.065Z,43.33
2018-02-10T06:23:14.856Z,42.72
2018-02-10T06:25:43.217Z,50.45
2018-02-10T06:28:11.637Z,47.75
2018-02-10T06:30:40.051Z,47.75
2018-02-10T06:33:08.549Z,46.30
2018-02-10T06:35:36.973Z,48.05
2018-02-10T06:38:05.374Z,48.85
2018-02-10T06:40:33.790Z,47.47
2018-02-10T06:43:02.182Z,50.03
2018-02-10T06:45:30.699Z,50.00
2018-02-10T06:47:59.130Z,47.55
2018-02-10T06:50:27.711Z,48.38
2018-02-10T06:52:56.091Z,45.42
2018-02-10T06:55:24.487Z,47.67
2018-02-10T06:57:52.902Z,54.13
2018-02-10T07:00:21.312Z,46.25
2018-02-10T07:02:49.782Z,52.35
2018-02-10T07:05:18.189Z,44.88
2018-02-10T07:07:46.622Z,38.47
2018-02-10T07:10:15.019Z,43.65
2018-02-10T07:12:43.417Z,47.42
2018-02-10T07:15:11.987Z,43.83
2018-02-10T07:17:40.384Z,53.03
2018-02-10T07:20:08.803Z,53.50
2018-02-10T07:22:37.201Z,43.40
2018-02-10T07:25:05.687Z,45.20
2018-02-10T07:27:34.463Z,47.60
2018-02-10T07:30:02.867Z,42.17
2018-02-10T07:32:31.291Z,46.20
2018-02-10T07:34:59.706Z,43.42
2018-02-10T07:37:28.081Z,37.65
2018-02-10T07:39:56.536Z,36.67
2018-02-10T07:42:25.037Z,43.15
2018-02-10T07:44:53.438Z,37.85
2018-02-10T07:47:21.837Z,37.33
2018-02-10T07:49:50.228Z,37.15
2018-02-10T07:52:18.649Z,32.13
2018-02-10T07:54:47.036Z,33.22
2018-02-10T07:57:15.504Z,37.15
2018-02-10T07:59:43.914Z,35.58
2018-02-10T08:02:12.302Z,37.92
2018-02-10T08:04:40.704Z,32.42
2018-02-10T08:07:09.175Z,39.92
2018-02-10T08:09:38.125Z,30.70
2018-02-10T08:12:06.547Z,28.77
2018-02-10T08:14:34.967Z,29.55
2018-02-10T08:17:03.371Z,30.17
2018-02-10T08:19:31.760Z,32.75
2018-02-10T08:22:00.371Z,36.67
2018-02-10T08:24:28.779Z,30.40
2018-02-10T08:26:57.283Z,29.25
2018-02-10T08:29:25.686Z,27.62
2018-02-10T08:31:54.168Z,35.20
2018-02-10T08:34:22.689Z,28.60
2018-02-10T08:36:51.136Z,34.05
2018-02-10T08:39:19.550Z,31.55
2018-02-10T08:41:47.991Z,24.20
2018-02-10T08:44:16.427Z,22.50
2018-02-10T08:46:45.309Z,23.58
2018-02-10T08:49:13.884Z,25.55
2018-02-10T08:51:42.300Z,30.27
2018-02-10T08:54:11.604Z,27.20
2018-02-10T08:56:40.011Z,30.73
2018-02-10T08:59:08.429Z,24.67
2018-02-10T09:01:37.305Z,47.47
2018-02-10T09:04:05.742Z,24.87
2018-02-10T09:06:34.138Z,26.25
2018-02-10T09:09:02.553Z,21.33
2018-02-10T09:11:31.192Z,20.95
2018-02-10T09:13:59.676Z,23.08
2018-02-10T09:16:28.122Z,20.92
2018-02-10T09:18:56.534Z,22.52
2018-02-10T09:21:24.922Z,21.77
2018-02-10T09:23:53.327Z,20.17
2018-02-10T09:26:21.823Z,16.67
2018-02-10T09:28:50.205Z,12.43
2018-02-10T09:31:18.668Z,15.17
2018-02-10T09:33:47.080Z,12.70
2018-02-10T09:36:15.501Z,12.03
2018-02-10T09:38:44.354Z,14.60
2018-02-10T09:41:12.749Z,12.87
2018-02-10T09:43:41.147Z,15.13
2018-02-10T09:46:09.558Z,15.40
2018-02-10T09:48:40.706Z,16.07
2018-02-10T09:51:09.109Z,12.60
2018-02-10T09:53:42.361Z,13.07
2018-02-10T09:56:10.745Z,16.60
2018-02-10T09:58:39.151Z,14.20
2018-02-10T10:01:07.555Z,16.47
2018-02-10T10:03:36.055Z,15.73
2018-02-10T10:06:04.499Z,15.33
2018-02-10T10:08:33.009Z,20.90
2018-02-10T10:11:01.485Z,18.30
2018-02-10T10:13:29.992Z,15.97
2018-02-10T10:15:58.475Z,18.17
2018-02-10T10:18:27.211Z,17.67
2018-02-10T10:20:55.583Z,19.40
2018-02-10T10:23:23.991Z,22.27
2018-02-10T10:25:52.387Z,24.90
2018-02-10T10:28:20.782Z,20.20
2018-02-10T10:30:49.231Z,21.70
2018-02-10T10:33:17.655Z,23.60
2018-02-10T10:35:46.057Z,20.47
2018-02-10T10:38:14.516Z,21.07
2018-02-10T10:40:42.946Z,21.77
2018-02-10T10:43:11.483Z,21.53
2018-02-10T10:45:39.925Z,26.53
2018-02-10T10:48:08.328Z,26.17
2018-02-10T10:50:36.732Z,23.80
2018-02-10T10:53:05.154Z,25.70
2018-02-10T10:55:33.553Z,28.30
2018-02-10T10:58:02.088Z,24.97
2018-02-10T11:00:30.484Z,23.80
2018-02-10T11:02:58.912Z,27.30
2018-02-10T11:05:27.391Z,28.47
2018-02-10T11:07:55.754Z,31.33
2018-02-10T11:10:24.235Z,30.03
2018-02-10T11:12:52.666Z,34.60
2018-02-10T11:15:21.063Z,27.50
2018-02-10T11:17:49.547Z,29.03
2018-02-10T11:20:17.972Z,29.40
2018-02-10T11:22:46.361Z,25.33
2018-02-10T11:25:14.784Z,26.83
2018-02-10T11:27:43.235Z,23.43
2018-02-10T11:30:11.654Z,24.60
2018-02-10T11:32:40.037Z,25.40
2018-02-10T11:35:08.502Z,29.23
2018-02-10T11:37:36.973Z,27.93
2018-02-10T11:40:05.374Z,29.90
2018-02-10T11:42:33.808Z,26.00
2018-02-10T11:45:02.231Z,27.60
2018-02-10T11:47:30.647Z,29.03
2018-02-10T11:49:59.041Z,30.77
2018-02-10T11:52:27.444Z,35.73
2018-02-10T11:54:55.882Z,30.90
2018-02-10T11:57:24.362Z,29.17
2018-02-10T11:59:52.763Z,32.77
2018-02-10T12:02:21.232Z,26.27
2018-02-10T12:04:49.640Z,25.63
2018-02-10T12:07:18.050Z,28.70
2018-02-10T12:09:46.540Z,24.83
2018-02-10T12:12:14.944Z,26.73
2018-02-10T12:14:43.348Z,24.63
2018-02-10T12:17:11.878Z,23.60
2018-02-10T12:19:40.351Z,24.60
2018-02-10T12:22:08.790Z,27.73
2018-02-10T12:24:37.210Z,27.60
2018-02-10T12:27:05.615Z,28.30
2018-02-10T12:29:34.043Z,27.65
2018-02-10T12:32:02.453Z,28.35
2018-02-10T12:34:30.915Z,29.80
2018-02-10T12:36:59.332Z,27.42
2018-02-10T12:39:27.739Z,31.67
2018-02-10T12:41:56.247Z,29.25
2018-02-10T12:44:24.655Z,27.92
2018-02-10T12:46:53.134Z,26.60
2018-02-10T12:49:37.644Z,31.27
2018-02-10T12:52:06.108Z,25.87
2018-02-10T12:54:34.516Z,27.37
2018-02-10T12:57:02.935Z,23.38
2018-02-10T12:59:31.355Z,30.27
2018-02-10T13:01:59.793Z,30.50
2018-02-10T13:04:28.275Z,34.30
2018-02-10T13:06:56.702Z,19.75
2018-02-10T13:09:25.112Z,17.65
2018-02-10T13:11:53.630Z,21.73
2018-02-10T13:14:22.052Z,19.95
2018-02-10T13:16:50.633Z,24.35
2018-02-10T13:19:19.045Z,21.00
2018-02-10T13:21:47.471Z,25.92
2018-02-10T13:24:15.878Z,17.60
2018-02-10T13:26:44.276Z,19.50
2018-02-10T13:29:12.782Z,22.10
2018-02-10T13:31:41.217Z,17.50
2018-02-10T13:34:09.697Z,21.27
2018-02-10T13:36:38.097Z,18.10
2018-02-10T13:39:06.516Z,18.42
2018-02-10T13:41:34.985Z,20.52
2018-02-10T13:44:03.533Z,18.10
2018-02-10T13:46:32.038Z,17.62
2018-02-10T13:49:00.468Z,14.77
2018-02-10T13:51:28.960Z,16.10
2018-02-10T13:53:57.459Z,15.30
2018-02-10T13:56:25.866Z,22.25
2018-02-10T13:58:54.380Z,15.70
2018-02-10T14:01:22.880Z,17.17
2018-02-10T14:03:52.275Z,17.40
2018-02-10T14:06:20.937Z,25.95
2018-02-10T14:08:49.345Z,13.95
2018-02-10T14:11:17.756Z,14.40
2018-02-10T14:13:46.181Z,15.25
2018-02-10T14:16:14.601Z,16.30
2018-02-10T14:18:43.042Z,17.98
2018-02-10T14:21:11.437Z,12.82
2018-02-10T14:23:39.890Z,10.82
2018-02-10T14:26:08.316Z,11.57
2018-02-10T14:28:36.775Z,13.80
2018-02-10T14:31:05.287Z,14.63
2018-02-10T14:33:33.675Z,13.82
2018-02-10T14:36:02.063Z,12.95
2018-02-10T14:38:30.470Z,19.42
2018-02-10T14:40:58.916Z,15.23
2018-02-10T14:43:27.323Z,12.68
2018-02-10T14:45:55.910Z,16.23
2018-02-10T14:48:24.308Z,16.02
2018-02-10T14:50:52.732Z,16.08
2018-02-10T14:53:21.146Z,10.95
2018-02-10T14:55:49.528Z,12.48
2018-02-10T14:58:18.003Z,12.15
2018-02-10T15:00:46.409Z,15.65
2018-02-10T15:03:14.820Z,13.65
2018-02-10T15:05:43.230Z,11.00
2018-02-10T15:08:11.623Z,17.27
2018-02-10T15:10:40.156Z,12.65
2018-02-10T15:13:08.544Z,16.37
2018-02-10T15:15:37.009Z,18.15
2018-02-10T15:18:05.436Z,15.65
2018-02-10T15:20:33.850Z,19.27
2018-02-10T15:23:02.290Z,18.50
2018-02-10T15:25:30.692Z,17.52
2018-02-10T15:27:59.146Z,21.42
2018-02-10T15:30:39.905Z,39.47
2018-02-10T15:33:21.001Z,28.12
2018-02-10T15:35:49.512Z,22.02
2018-02-10T15:38:18.060Z,27.25
2018-02-10T15:40:46.454Z,17.65
2018-02-10T15:43:14.887Z,17.75
2018-02-10T15:45:43.371Z,25.73
2018-02-10T15:48:11.755Z,20.67
2018-02-10T15:50:40.170Z,21.98
2018-02-10T15:53:08.677Z,18.62
2018-02-10T15:55:37.089Z,23.12
2018-02-10T15:58:05.516Z,18.10
2018-02-10T16:00:33.927Z,17.50
2018-02-10T16:03:02.354Z,15.88
2018-02-10T16:05:30.753Z,16.80
2018-02-10T16:07:59.174Z,16.50
2018-02-10T16:10:27.727Z,17.48
2018-02-10T16:12:56.132Z,20.70
2018-02-10T16:15:24.547Z,15.52
2018-02-10T16:17:52.960Z,12.73
2018-02-10T16:20:21.342Z,13.10
2018-02-10T16:22:49.974Z,11.63
2018-02-10T16:25:18.375Z,16.67
2018-02-10T16:27:46.778Z,13.88
2018-02-10T16:30:15.300Z,20.08
2018-02-10T16:32:43.698Z,19.00
2018-02-10T16:35:12.136Z,16.17
2018-02-10T16:37:40.551Z,16.80
2018-02-10T16:40:08.981Z,13.32
2018-02-10T16:42:37.373Z,13.45
2018-02-10T16:45:06.154Z,19.30
2018-02-10T16:47:34.585Z,18.58
2018-02-10T16:50:02.978Z,7.62
2018-02-10T16:52:31.375Z,8.48
2018-02-10T16:54:59.763Z,9.98
2018-02-10T16:57:28.214Z,12.30
2018-02-10T16:59:56.617Z,13.38
2018-02-10T17:02:25.328Z,16.87
2018-02-10T17:04:53.723Z,15.25
2018-02-10T17:07:22.097Z,11.30
2018-02-10T17:09:50.514Z,11.18
2018-02-10T17:12:18.918Z,10.30
2018-02-10T17:14:47.469Z,10.45
2018-02-10T17:17:15.862Z,8.70
2018-02-10T17:19:44.243Z,8.93
2018-02-10T17:22:12.679Z,9.98
2018-02-10T17:24:41.127Z,7.65
2018-02-10T17:27:09.514Z,15.52
2018-02-10T17:29:37.982Z,9.43
2018-02-10T17:32:06.395Z,8.68
2018-02-10T17:34:34.783Z,9.88
2018-02-10T17:37:03.190Z,12.65
2018-02-10T17:39:32.061Z,11.57
2018-02-10T17:42:00.450Z,12.77
2018-02-10T17:44:28.857Z,51.88
2018-02-10T17:46:57.305Z,27.98
2018-02-10T17:49:25.711Z,11.25
2018-02-10T17:51:54.194Z,10.93
2018-02-10T17:54:22.582Z,12.02
2018-02-10T17:56:51.003Z,12.00
2018-02-10T17:59:19.408Z,11.90
2018-02-10T18:01:47.912Z,15.55
2018-02-10T18:04:16.347Z,11.50
2018-02-10T18:06:44.770Z,14.87
2018-02-10T18:09:13.265Z,12.32
2018-02-10T18:11:41.676Z,12.45
2018-02-10T18:14:10.069Z,14.15
2018-02-10T18:16:38.535Z,14.77
2018-02-10T18:19:06.933Z,13.25
2018-02-10T18:21:35.412Z,13.70
2018-02-10T18:24:03.818Z,13.90
2018-02-10T18:26:32.235Z,13.18
2018-02-10T18:29:00.972Z,15.38
2018-02-10T18:31:29.362Z,10.70
2018-02-10T18:33:57.783Z,12.95
2018-02-10T18:36:26.192Z,10.48
2018-02-10T18:38:54.621Z,15.52
2018-02-10T18:41:23.061Z,14.20
2018-02-10T18:43:51.462Z,14.35
2018-02-10T18:46:19.857Z,14.18
2018-02-10T18:48:48.296Z,19.60
2018-02-10T18:51:16.706Z,20.40
2018-02-10T18:53:45.190Z,20.42
2018-02-10T18:56:13.630Z,20.33
2018-02-10T18:58:42.103Z,19.80
2018-02-10T19:01:10.565Z,16.95
2018-02-10T19:03:38.953Z,22.87
2018-02-10T19:06:07.389Z,19.45
2018-02-10T19:08:35.786Z,22.75
2018-02-10T19:11:04.234Z,19.25
2018-02-10T19:13:32.766Z,25.60
2018-02-10T19:16:01.167Z,24.73
2018-02-10T19:18:29.615Z,18.25
2018-02-10T19:20:58.053Z,217.45
2018-02-10T19:23:26.611Z,54.75
2018-02-10T19:25:55.030Z,20.52
2018-02-10T19:28:23.458Z,17.10
2018-02-10T19:30:51.969Z,21.60
2018-02-10T19:33:20.366Z,16.05
2018-02-10T19:35:48.755Z,19.55
2018-02-10T19:38:17.167Z,18.75
2018-02-10T19:40:45.806Z,26.87
2018-02-10T19:43:14.230Z,21.20
2018-02-10T19:45:42.647Z,20.30
2018-02-10T19:48:11.113Z,21.67
2018-02-10T19:50:39.515Z,22.00
2018-02-10T19:53:08.131Z,26.85
2018-02-10T19:55:36.587Z,20.30
2018-02-10T19:58:05.103Z,19.80
2018-02-10T20:00:33.501Z,19.77
2018-02-10T20:03:01.907Z,20.40
2018-02-10T20:05:30.710Z,19.48
2018-02-10T20:07:59.114Z,18.20
2018-02-10T20:10:27.528Z,21.50
2018-02-10T20:12:55.932Z,22.25
2018-02-10T20:15:24.331Z,22.25
2018-02-10T20:17:52.753Z,21.25
2018-02-10T20:20:21.171Z,22.20
2018-02-10T20:22:49.657Z,20.77
2018-02-10T20:25:18.221Z,18.67
2018-02-10T20:27:47.684Z,14.95
2018-02-10T20:30:16.162Z,16.12
2018-02-10T20:32:44.589Z,17.58
2018-02-10T20:35:13.174Z,16.85
2018-02-10T20:37:41.599Z,16.05
2018-02-10T20:40:10.008Z,13.18
2018-02-10T20:42:38.426Z,20.88
2018-02-10T20:45:06.942Z,14.45
2018-02-10T20:47:35.412Z,12.85
2018-02-10T20:50:03.803Z,14.30
2018-02-10T20:52:32.203Z,15.65
2018-02-10T20:55:00.592Z,18.20
2018-02-10T20:57:29.065Z,16.73
2018-02-10T20:59:57.594Z,15.65
2018-02-10T21:02:26.403Z,15.48
2018-02-10T21:04:54.801Z,14.10
2018-02-10T21:07:23.214Z,13.25
2018-02-10T21:09:51.604Z,11.75
2018-02-10T21:12:20.051Z,11.80
2018-02-10T21:14:48.459Z,13.40
2018-02-10T21:17:16.865Z,13.68
2018-02-10T21:19:45.269Z,10.85
2018-02-10T21:22:13.670Z,12.35
2018-02-10T21:24:42.112Z,11.40
2018-02-10T21:27:10.519Z,11.43
2018-02-10T21:29:39.455Z,12.80
2018-02-10T21:32:07.883Z,10.80
2018-02-10T21:34:36.279Z,9.63
2018-02-10T21:37:04.657Z,14.38
2018-02-10T21:39:33.081Z,10.05
2018-02-10T21:42:01.779Z,10.90
2018-02-10T21:44:30.191Z,13.05
2018-02-10T21:46:58.597Z,14.45
2018-02-10T21:49:26.969Z,11.73
2018-02-10T21:51:55.353Z,12.60
2018-02-10T21:54:23.778Z,12.85
2018-02-10T21:56:52.190Z,15.60
2018-02-10T21:59:20.667Z,14.98
2018-02-10T22:01:49.044Z,17.30
2018-02-10T22:04:17.417Z,15.43
2018-02-10T22:06:45.838Z,17.12
2018-02-10T22:09:14.204Z,17.90
2018-02-10T22:11:42.642Z,17.33
2018-02-10T22:14:11.157Z,17.73
2018-02-10T22:16:39.547Z,17.23
2018-02-10T22:19:08.084Z,20.02
2018-02-10T22:21:36.535Z,18.65
2018-02-10T22:24:04.938Z,15.23
2018-02-10T22:26:33.355Z,23.30
2018-02-10T22:31:36.373Z,17.10
2018-02-10T22:34:04.807Z,17.20
2018-02-10T22:36:33.221Z,14.68
2018-02-10T22:39:01.601Z,16.30
2018-02-10T22:41:30.024Z,17.60
2018-02-10T22:43:58.405Z,14.35
2018-02-10T22:46:26.843Z,16.95
2018-02-10T22:48:55.260Z,18.00
2018-02-10T22:51:23.745Z,19.27
2018-02-10T22:53:52.118Z,21.48
2018-02-10T22:56:20.514Z,18.62
2018-02-10T22:58:49.014Z,17.62
2018-02-10T23:01:17.434Z,19.42
2018-02-10T23:03:45.894Z,17.90
2018-02-10T23:06:14.328Z,20.05
2018-02-10T23:08:42.710Z,22.37
2018-02-10T23:11:11.122Z,23.98
2018-02-10T23:13:39.501Z,18.77
2018-02-10T23:16:07.905Z,19.62
2018-02-10T23:18:36.407Z,15.40
2018-02-10T23:21:04.804Z,18.62
2018-02-10T23:23:33.193Z,18.05
2018-02-10T23:26:01.566Z,19.67
2018-02-10T23:28:29.952Z,15.95
2018-02-10T23:30:58.328Z,19.85
2018-02-10T23:33:26.881Z,20.40
2018-02-10T23:35:55.273Z,21.25
2018-02-10T23:38:23.663Z,20.65
2018-02-10T23:40:52.043Z,17.52
2018-02-10T23:43:20.471Z,19.33
2018-02-10T23:45:48.872Z,16.50
2018-02-10T23:48:17.259Z,13.65
2018-02-10T23:50:45.701Z,14.20
2018-02-10T23:53:14.079Z,20.73
2018-02-10T23:55:42.450Z,20.50
2018-02-10T23:58:10.934Z,22.98
